This is the latest recevied weather packets stored in our database for station/object YO4TNV-15. If no packets are shown the sender has not sent any weather packets the latest 10 day(s).
| Time | Temp. | Humidity | Pressure | Rain* | Wind** | Luminosity | Snow |
|---|---|---|---|---|---|---|---|
| 1777672337 | 11.67° C | 52% | 1010.1 hPa | - | - | - | - |
| 1777671445 | 11.67° C | 51% | 1010.1 hPa | - | - | - | - |
| 1777671437 | 11.67° C | 51% | 1010.1 hPa | - | - | - | - |
| 1777670546 | 12.22° C | 48% | 1010.1 hPa | - | - | - | - |
| 1777670536 | 12.22° C | 48% | 1010.1 hPa | - | - | - | - |
| 1777669645 | 12.78° C | 47% | 1010.2 hPa | - | - | - | - |
| 1777669636 | 12.78° C | 47% | 1010.2 hPa | - | - | - | - |
| 1777668746 | 12.78° C | 45% | 1010.1 hPa | - | - | - | - |
| 1777668736 | 12.78° C | 45% | 1010.1 hPa | - | - | - | - |
| 1777667844 | 12.78° C | 46% | 1010.1 hPa | - | - | - | - |
| 1777667836 | 12.78° C | 46% | 1010.1 hPa | - | - | - | - |
| 1777666946 | 12.22° C | 46% | 1010.1 hPa | - | - | - | - |
| 1777666936 | 12.22° C | 46% | 1010.1 hPa | - | - | - | - |
| 1777666044 | 12.22° C | 47% | 1010 hPa | - | - | - | - |
| 1777666036 | 12.22° C | 47% | 1010 hPa | - | - | - | - |
| 1777665146 | 12.22° C | 47% | 1010 hPa | - | - | - | - |
| 1777665136 | 12.22° C | 47% | 1010 hPa | - | - | - | - |
| 1777664244 | 12.22° C | 50% | 1010 hPa | - | - | - | - |
| 1777664235 | 12.22° C | 50% | 1010 hPa | - | - | - | - |
| 1777663346 | 11.67° C | 49% | 1010.1 hPa | - | - | - | - |
| 1777663335 | 11.67° C | 49% | 1010.1 hPa | - | - | - | - |
| 1777662443 | 12.78° C | 37% | 1010.1 hPa | - | - | - | - |
| 1777662434 | 12.78° C | 37% | 1010.1 hPa | - | - | - | - |
| 1777661546 | 13.33° C | 35% | 1009.9 hPa | - | - | - | - |
| 1777661534 | 13.33° C | 35% | 1009.9 hPa | - | - | - | - |
* Rain since midnight (hover to see other rain measurements)
** Current wind speed in m/s (hover to see current wind gust speed)